createdAt,value
2023-03-05T00:01:08.010Z,98436.31
2023-03-05T00:03:34.834Z,98438.81
2023-03-05T00:06:02.010Z,98444.72
2023-03-05T00:08:31.213Z,98438.34
2023-03-05T00:11:03.060Z,98442.97
2023-03-05T00:13:30.043Z,98432.41
2023-03-05T00:15:57.188Z,98435.94
2023-03-05T00:18:24.335Z,98429.53
2023-03-05T00:20:51.407Z,98434.13
2023-03-05T00:23:18.208Z,98427.06
2023-03-05T00:25:46.646Z,98432.50
2023-03-05T00:28:13.484Z,98429.53
2023-03-05T00:30:40.782Z,98420.75
2023-03-05T00:33:08.049Z,98422.66
2023-03-05T00:35:42.338Z,98423.59
2023-03-05T00:38:09.472Z,98417.50
2023-03-05T00:40:38.065Z,98417.41
2023-03-05T00:43:04.968Z,98409.47
2023-03-05T00:45:32.094Z,98409.47
2023-03-05T00:47:58.835Z,98408.44
2023-03-05T00:50:26.251Z,98392.50
2023-03-05T00:52:53.035Z,98399.06
2023-03-05T00:55:20.199Z,98390.97
2023-03-05T00:57:47.042Z,98392.19
2023-03-05T01:00:14.410Z,98387.16
2023-03-05T01:02:41.319Z,98380.94
2023-03-05T01:05:10.857Z,98373.97
2023-03-05T01:07:37.668Z,98377.13
2023-03-05T01:10:05.246Z,98375.91
2023-03-05T01:12:32.039Z,98373.13
2023-03-05T01:14:59.148Z,98371.13
2023-03-05T01:17:26.698Z,98371.59
2023-03-05T01:19:53.767Z,98361.84
2023-03-05T01:22:20.547Z,98363.38
2023-03-05T01:24:47.668Z,98368.91
2023-03-05T01:27:14.450Z,98365.66
2023-03-05T01:29:41.541Z,98358.31
2023-03-05T01:32:08.355Z,98355.81
2023-03-05T01:34:37.382Z,98359.06
2023-03-05T01:37:04.186Z,98365.56
2023-03-05T01:39:31.319Z,98368.06
2023-03-05T01:41:58.107Z,98368.44
2023-03-05T01:44:27.650Z,98363.00
2023-03-05T01:46:54.456Z,98355.06
2023-03-05T01:49:24.161Z,98359.66
2023-03-05T01:52:23.586Z,98365.09
2023-03-05T01:54:52.299Z,98355.34
2023-03-05T01:57:25.151Z,98356.13
2023-03-05T01:59:55.755Z,98356.97
2023-03-05T02:02:22.602Z,98359.56
2023-03-05T02:04:56.228Z,98365.19
2023-03-05T02:07:22.999Z,98361.47
2023-03-05T02:09:50.204Z,98365.28
2023-03-05T02:12:16.982Z,98366.25
2023-03-05T02:14:46.202Z,98362.59
2023-03-05T02:17:13.196Z,98368.94
2023-03-05T02:20:10.959Z,98364.44
2023-03-05T02:22:37.836Z,98360.59
2023-03-05T02:25:16.132Z,98365.38
2023-03-05T02:27:43.475Z,98359.19
2023-03-05T02:30:11.194Z,98353.75
2023-03-05T02:32:38.114Z,98348.59
2023-03-05T02:35:05.624Z,98350.41
2023-03-05T02:37:52.487Z,98357.34
2023-03-05T02:40:19.564Z,98362.88
2023-03-05T02:42:46.812Z,98352.91
2023-03-05T02:45:13.901Z,98350.22
2023-03-05T02:47:40.768Z,98342.47
2023-03-05T02:50:08.480Z,98346.00
2023-03-05T02:52:35.312Z,98345.25
2023-03-05T02:55:02.428Z,98342.56
2023-03-05T02:57:29.205Z,98344.50
2023-03-05T02:59:56.304Z,98341.72
2023-03-05T03:02:23.157Z,98345.06
2023-03-05T03:04:50.300Z,98337.97
2023-03-05T03:07:17.071Z,98345.44
2023-03-05T03:09:44.213Z,98346.19
2023-03-05T03:12:11.315Z,98349.84
2023-03-05T03:14:39.630Z,98345.63
2023-03-05T03:17:07.383Z,98342.56
2023-03-05T03:19:35.465Z,98338.06
2023-03-05T03:22:02.385Z,98340.75
2023-03-05T03:24:30.347Z,98341.50
2023-03-05T03:26:57.281Z,98332.81
2023-03-05T03:29:24.600Z,98341.03
2023-03-05T03:31:51.391Z,98335.50
2023-03-05T03:34:18.669Z,98333.97
2023-03-05T03:36:45.592Z,98325.22
2023-03-05T03:39:14.083Z,98318.22
2023-03-05T03:41:41.875Z,98319.28
2023-03-05T03:44:10.686Z,98318.41
2023-03-05T03:46:38.329Z,98308.59
2023-03-05T03:49:05.926Z,98312.13
2023-03-05T03:51:32.793Z,98314.72
2023-03-05T03:54:00.236Z,98298.88
2023-03-05T03:56:27.149Z,98298.22
2023-03-05T03:58:54.356Z,98293.72
2023-03-05T04:01:21.491Z,98289.13
2023-03-05T04:03:48.608Z,98279.31
2023-03-05T04:06:15.447Z,98270.53
2023-03-05T04:08:42.610Z,98272.91
2023-03-05T04:11:09.389Z,98273.09
2023-03-05T04:13:36.502Z,98270.63
2023-03-05T04:16:03.329Z,98266.06
2023-03-05T04:18:32.464Z,98260.63
2023-03-05T04:20:59.358Z,98260.91
2023-03-05T04:23:26.466Z,98268.91
2023-03-05T04:25:53.266Z,98259.28
2023-03-05T04:28:20.384Z,98249.56
2023-03-05T04:30:47.243Z,98251.91
2023-03-05T04:33:14.402Z,98253.25
2023-03-05T04:35:41.172Z,98255.75
2023-03-05T04:38:08.305Z,98256.41
2023-03-05T04:40:35.251Z,98250.97
2023-03-05T04:43:02.569Z,98255.47
2023-03-05T04:45:29.433Z,98254.91
2023-03-05T04:47:56.482Z,98249.16
2023-03-05T04:50:23.375Z,98247.91
2023-03-05T04:52:50.503Z,98254.03
2023-03-05T04:55:17.734Z,98252.41
2023-03-05T04:57:44.786Z,98253.44
2023-03-05T05:00:15.976Z,98257.00
2023-03-05T05:02:44.403Z,98253.34
2023-03-05T05:05:25.612Z,98249.94
2023-03-05T05:07:56.803Z,98257.94
2023-03-05T05:10:24.655Z,98263.19
2023-03-05T05:12:51.751Z,98269.56
2023-03-05T05:15:18.634Z,98257.38
2023-03-05T05:17:46.019Z,98258.22
2023-03-05T05:20:14.293Z,98267.88
2023-03-05T05:22:41.544Z,98253.63
2023-03-05T05:25:08.705Z,98265.19
2023-03-05T05:27:35.980Z,98258.88
2023-03-05T05:30:04.120Z,98269.66
2023-03-05T05:32:31.177Z,98269.66
2023-03-05T05:34:58.325Z,98277.66
2023-03-05T05:37:25.777Z,98276.81
2023-03-05T05:39:52.655Z,98275.13
2023-03-05T05:42:20.621Z,98283.22
2023-03-05T05:44:47.679Z,98284.94
2023-03-05T05:47:15.694Z,98289.22
2023-03-05T05:49:42.523Z,98292.19
2023-03-05T05:52:09.744Z,98289.59
2023-03-05T05:54:36.564Z,98281.59
2023-03-05T05:57:03.774Z,98277.97
2023-03-05T05:59:30.515Z,98286.00
2023-03-05T06:01:57.628Z,98284.34
2023-03-05T06:04:24.392Z,98281.69
2023-03-05T06:06:51.434Z,98280.84
2023-03-05T06:09:18.257Z,98286.25
2023-03-05T06:11:45.400Z,98284.44
2023-03-05T06:14:12.422Z,98281.69
2023-03-05T06:16:40.100Z,98275.41
2023-03-05T06:19:07.023Z,98277.19
2023-03-05T06:21:34.100Z,98272.91
2023-03-05T06:24:01.090Z,98270.16
2023-03-05T06:26:28.153Z,98263.19
2023-03-05T06:28:55.094Z,98267.47
2023-03-05T06:31:23.437Z,98264.81
2023-03-05T06:33:50.341Z,98258.50
2023-03-05T06:36:18.737Z,98251.75
2023-03-05T06:38:46.947Z,98247.53
2023-03-05T06:41:17.420Z,98244.13
2023-03-05T06:43:44.874Z,98238.00
2023-03-05T06:46:13.571Z,98240.69
2023-03-05T06:48:40.359Z,98246.78
2023-03-05T06:51:14.263Z,98242.09
2023-03-05T06:53:41.219Z,98243.25
2023-03-05T06:56:08.434Z,98241.53
2023-03-05T06:58:35.228Z,98236.84
2023-03-05T07:01:04.406Z,98234.94
2023-03-05T07:03:31.196Z,98232.41
2023-03-05T07:05:58.276Z,98241.44
2023-03-05T07:08:25.004Z,98237.25
2023-03-05T07:10:52.091Z,98232.84
2023-03-05T07:13:18.863Z,98229.13
2023-03-05T07:15:46.039Z,98238.88
2023-03-05T07:18:12.812Z,98221.03
2023-03-05T07:20:39.915Z,98221.72
2023-03-05T07:23:06.673Z,98215.59
2023-03-05T07:25:36.041Z,98214.16
2023-03-05T07:28:05.415Z,98218.34
2023-03-05T07:30:33.643Z,98214.47
2023-03-05T07:33:00.454Z,98212.06
2023-03-05T07:35:27.502Z,98204.16
2023-03-05T07:37:55.858Z,98209.88
2023-03-05T07:40:23.052Z,98196.31
2023-03-05T07:42:49.813Z,98192.50
2023-03-05T07:45:16.904Z,98193.38
2023-03-05T07:47:43.701Z,98187.56
2023-03-05T07:50:11.310Z,98187.25
2023-03-05T07:52:38.140Z,98188.41
2023-03-05T07:55:05.462Z,98187.56
2023-03-05T07:57:35.500Z,98188.31
2023-03-05T08:00:02.590Z,98187.34
2023-03-05T08:02:29.789Z,98183.72
2023-03-05T08:04:56.973Z,98185.53
2023-03-05T08:07:23.718Z,98184.56
2023-03-05T08:09:50.830Z,98181.53
2023-03-05T08:12:17.680Z,98184.38
2023-03-05T08:14:44.815Z,98176.94
2023-03-05T08:17:11.613Z,98175.00
2023-03-05T08:19:38.771Z,98171.59
2023-03-05T08:22:05.640Z,98173.41
2023-03-05T08:24:32.696Z,98170.75
2023-03-05T08:26:59.549Z,98174.16
2023-03-05T08:29:26.876Z,98169.56
2023-03-05T08:31:54.072Z,98169.75
2023-03-05T08:34:21.380Z,98168.50
2023-03-05T08:36:48.937Z,98169.44
2023-03-05T08:39:16.508Z,98178.41
2023-03-05T08:41:43.306Z,98171.06
2023-03-05T08:44:10.411Z,98167.13
2023-03-05T08:46:39.522Z,98171.13
2023-03-05T08:49:07.469Z,98168.19
2023-03-05T08:51:34.822Z,98169.28
2023-03-05T08:54:02.537Z,98163.94
2023-03-05T08:56:31.423Z,98167.41
2023-03-05T08:58:58.507Z,98163.19
2023-03-05T09:01:25.325Z,98163.75
2023-03-05T09:03:52.472Z,98157.84
2023-03-05T09:06:19.200Z,98164.41
2023-03-05T09:08:46.266Z,98160.44
2023-03-05T09:11:13.179Z,98161.28
2023-03-05T09:13:40.346Z,98158.69
2023-03-05T09:16:09.106Z,98155.13
2023-03-05T09:18:40.232Z,98160.47
2023-03-05T09:21:16.982Z,98164.94
2023-03-05T09:23:44.378Z,98159.72
2023-03-05T09:26:12.263Z,98160.88
2023-03-05T09:28:39.966Z,98159.94
2023-03-05T09:31:07.798Z,98168.78
2023-03-05T09:33:35.800Z,98165.84
2023-03-05T09:36:02.752Z,98166.22
2023-03-05T09:38:29.828Z,98170.81
2023-03-05T09:41:07.834Z,98170.91
2023-03-05T09:43:59.454Z,98168.25
2023-03-05T09:46:51.682Z,98168.34
2023-03-05T09:49:50.920Z,98169.00
2023-03-05T09:52:22.214Z,98167.16
2023-03-05T09:54:53.049Z,98167.06
2023-03-05T09:57:22.748Z,98172.50
2023-03-05T09:59:56.063Z,98167.94
2023-03-05T10:02:23.948Z,98166.03
2023-03-05T10:05:00.888Z,98166.13
2023-03-05T10:07:28.845Z,98164.31
2023-03-05T10:10:10.084Z,98150.84
2023-03-05T10:12:46.522Z,98163.25
2023-03-05T10:15:30.527Z,98162.28
2023-03-05T10:18:16.872Z,98153.31
2023-03-05T10:20:51.645Z,98152.38
2023-03-05T10:23:26.988Z,98148.50
2023-03-05T10:26:11.320Z,98156.44
2023-03-05T10:28:50.004Z,98147.66
2023-03-05T10:31:46.836Z,98142.31
2023-03-05T10:34:27.988Z,98142.41
2023-03-05T10:36:58.441Z,98133.22
2023-03-05T10:40:10.957Z,98139.09
2023-03-05T10:42:56.620Z,98129.28
2023-03-05T10:45:26.715Z,98136.44
2023-03-05T10:48:05.520Z,98124.69
2023-03-05T10:50:36.254Z,98127.56
2023-03-05T10:53:10.592Z,98116.13
2023-03-05T10:55:37.377Z,98118.59
2023-03-05T10:58:11.527Z,98112.38
2023-03-05T11:00:38.344Z,98104.69
2023-03-05T11:03:07.330Z,98103.22
2023-03-05T11:05:42.637Z,98101.09
2023-03-05T11:08:36.255Z,98103.66
2023-03-05T11:11:10.464Z,98110.91
2023-03-05T11:13:44.025Z,98101.63
2023-03-05T11:16:21.228Z,98104.50
2023-03-05T11:18:48.686Z,98102.47
2023-03-05T11:21:19.820Z,98105.06
2023-03-05T11:24:06.930Z,98104.84
2023-03-05T11:26:33.725Z,98107.53
2023-03-05T11:29:03.249Z,98110.50
2023-03-05T11:31:31.684Z,98107.72
2023-03-05T11:34:00.028Z,98108.25
2023-03-05T11:36:37.165Z,98115.44
2023-03-05T11:39:10.536Z,98105.78
2023-03-05T11:41:38.460Z,98103.75
2023-03-05T11:44:13.873Z,98092.63
2023-03-05T11:46:47.101Z,98083.78
2023-03-05T11:49:22.771Z,98085.34
2023-03-05T11:51:55.608Z,98082.38
2023-03-05T11:54:26.813Z,98078.84
2023-03-05T11:56:53.645Z,98076.91
2023-03-05T11:59:25.058Z,98073.38
2023-03-05T12:01:53.449Z,98073.16
2023-03-05T12:04:20.735Z,98078.19
2023-03-05T12:06:55.074Z,98068.31
2023-03-05T12:09:31.240Z,98056.97
2023-03-05T12:12:06.888Z,98053.88
2023-03-05T12:14:45.405Z,98048.31
2023-03-05T12:17:21.229Z,98047.13
2023-03-05T12:20:06.568Z,98042.41
2023-03-05T12:22:40.892Z,98042.28
2023-03-05T12:25:35.157Z,98047.31
2023-03-05T12:28:02.190Z,98043.41
2023-03-05T12:30:35.364Z,98036.13
2023-03-05T12:33:03.636Z,98039.59
2023-03-05T12:35:31.994Z,98039.50
2023-03-05T12:38:48.187Z,98039.91
2023-03-05T12:41:25.819Z,98036.34
2023-03-05T12:44:05.639Z,98034.94
2023-03-05T12:46:40.045Z,98036.88
2023-03-05T12:49:19.220Z,98038.38
2023-03-05T12:51:49.722Z,98034.94
2023-03-05T12:54:32.825Z,98036.94
2023-03-05T12:57:15.187Z,98038.44
2023-03-05T12:59:48.767Z,98033.81
2023-03-05T13:02:40.069Z,98038.94
2023-03-05T13:05:27.323Z,98034.38
2023-03-05T13:07:55.075Z,98028.28
2023-03-05T13:10:27.386Z,98028.16
2023-03-05T13:12:56.206Z,98021.81
2023-03-05T13:15:23.904Z,98021.44
2023-03-05T13:17:57.503Z,98021.31
2023-03-05T13:20:39.450Z,98006.72
2023-03-05T13:23:25.220Z,97995.03
2023-03-05T13:25:59.174Z,98003.44
2023-03-05T13:28:26.603Z,98009.75
2023-03-05T13:30:55.158Z,98010.59
2023-03-05T13:33:26.314Z,98014.88
2023-03-05T13:35:54.138Z,98015.50
2023-03-05T13:38:23.554Z,98019.69
2023-03-05T13:41:06.517Z,98013.00
2023-03-05T13:43:33.816Z,98007.25
2023-03-05T13:46:03.893Z,98011.97
2023-03-05T13:48:31.074Z,98012.59
2023-03-05T13:50:58.235Z,98008.31
2023-03-05T13:53:30.046Z,98002.50
2023-03-05T13:55:58.592Z,98001.25
2023-03-05T13:58:48.076Z,97994.69
2023-03-05T14:01:21.076Z,97998.00
2023-03-05T14:03:52.789Z,97998.09
2023-03-05T14:06:20.958Z,97987.97
2023-03-05T14:08:52.196Z,97982.75
2023-03-05T14:11:19.095Z,97992.25
2023-03-05T14:13:47.273Z,97978.22
2023-03-05T14:16:15.090Z,97988.50
2023-03-05T14:18:56.293Z,97977.88
2023-03-05T14:21:23.441Z,97981.91
2023-03-05T14:23:55.052Z,97970.31
2023-03-05T14:26:30.600Z,97972.53
2023-03-05T14:29:00.637Z,97971.91
2023-03-05T14:31:28.601Z,97969.56
2023-03-05T14:34:01.111Z,97964.09
2023-03-05T14:36:29.177Z,97962.03
2023-03-05T14:38:56.975Z,97962.66
2023-03-05T14:41:40.762Z,97970.81
2023-03-05T14:44:15.822Z,97969.97
2023-03-05T14:46:43.041Z,97956.72
2023-03-05T14:49:10.406Z,97968.19
2023-03-05T14:51:42.781Z,97959.31
2023-03-05T14:54:24.327Z,97950.81
2023-03-05T14:56:51.277Z,97954.56
2023-03-05T14:59:19.051Z,97948.81
2023-03-05T15:01:45.909Z,97948.06
2023-03-05T15:04:15.794Z,97946.03
2023-03-05T15:06:45.371Z,97935.31
2023-03-05T15:09:12.595Z,97929.94
2023-03-05T15:11:39.508Z,97930.16
2023-03-05T15:14:06.917Z,97935.41
2023-03-05T15:16:34.591Z,97934.50
2023-03-05T15:19:03.692Z,97938.53
2023-03-05T15:21:30.590Z,97938.41
2023-03-05T15:23:57.735Z,97938.63
2023-03-05T15:26:24.649Z,97933.91
2023-03-05T15:28:51.867Z,97941.59
2023-03-05T15:31:18.790Z,97943.16
2023-03-05T15:33:45.907Z,97942.44
2023-03-05T15:36:13.713Z,97933.31
2023-03-05T15:38:41.759Z,97936.25
2023-03-05T15:41:08.701Z,97938.25
2023-03-05T15:43:37.031Z,97944.63
2023-03-05T15:46:05.884Z,97948.25
2023-03-05T15:48:33.139Z,97942.03
2023-03-05T15:51:00.008Z,97955.56
2023-03-05T15:53:27.154Z,97955.31
2023-03-05T15:55:54.060Z,97956.06
2023-03-05T15:58:21.793Z,97958.22
2023-03-05T16:00:49.143Z,97956.41
2023-03-05T16:03:16.399Z,97944.00
2023-03-05T16:05:43.342Z,97945.78
2023-03-05T16:08:10.555Z,97943.22
2023-03-05T16:10:39.558Z,97941.66
2023-03-05T16:13:12.359Z,97945.91
2023-03-05T16:15:39.820Z,97935.19
2023-03-05T16:18:08.498Z,97940.81
2023-03-05T16:20:36.392Z,97935.91
2023-03-05T16:23:04.423Z,97941.88
2023-03-05T16:25:31.462Z,97938.34
2023-03-05T16:27:58.660Z,97939.53
2023-03-05T16:30:25.594Z,97939.66
2023-03-05T16:32:53.790Z,97938.75
2023-03-05T16:35:20.876Z,97953.25
2023-03-05T16:37:48.083Z,97950.56
2023-03-05T16:40:15.347Z,97953.47
2023-03-05T16:42:42.844Z,97958.22
2023-03-05T16:45:10.651Z,97962.69
2023-03-05T16:47:38.442Z,97957.56
2023-03-05T16:50:06.154Z,97956.72
2023-03-05T16:52:33.413Z,97951.56
2023-03-05T16:55:00.405Z,97956.09
2023-03-05T16:57:28.997Z,97957.03
2023-03-05T16:59:56.422Z,97952.78
2023-03-05T17:02:23.190Z,97960.28
2023-03-05T17:04:50.771Z,97961.03
2023-03-05T17:07:18.090Z,97966.59
2023-03-05T17:09:46.421Z,97967.03
2023-03-05T17:12:13.310Z,97966.19
2023-03-05T17:14:40.594Z,97978.84
2023-03-05T17:17:07.678Z,97973.59
2023-03-05T17:19:34.925Z,97975.06
2023-03-05T17:22:02.264Z,97975.53
2023-03-05T17:24:30.440Z,97979.69
2023-03-05T17:26:57.336Z,97979.59
2023-03-05T17:29:24.897Z,97973.28
2023-03-05T17:31:53.374Z,97966.50
2023-03-05T17:34:33.316Z,97972.44
2023-03-05T17:37:00.930Z,97967.19
2023-03-05T17:39:28.131Z,97968.66
2023-03-05T17:41:54.934Z,97966.56
2023-03-05T17:44:22.089Z,97965.69
2023-03-05T17:46:48.981Z,97955.22
2023-03-05T17:49:16.127Z,97965.47
2023-03-05T17:51:43.145Z,97960.59
2023-03-05T17:54:10.458Z,97954.25
2023-03-05T17:56:37.360Z,97959.94
2023-03-05T17:59:04.504Z,97956.28
2023-03-05T18:01:32.933Z,97950.09
2023-03-05T18:04:00.387Z,97948.28
2023-03-05T18:06:27.405Z,97949.13
2023-03-05T18:08:54.564Z,97946.69
2023-03-05T18:11:21.470Z,97941.56
2023-03-05T18:13:48.720Z,97943.59
2023-03-05T18:16:17.103Z,97934.81
2023-03-05T18:18:44.630Z,97945.41
2023-03-05T18:21:11.703Z,97940.78
2023-03-05T18:23:38.942Z,97944.44
2023-03-05T18:26:05.901Z,97932.13
2023-03-05T18:28:33.280Z,97931.06
2023-03-05T18:31:00.956Z,97937.81
2023-03-05T18:33:28.168Z,97935.16
2023-03-05T18:39:16.547Z,97926.56
2023-03-05T18:41:43.422Z,97926.72
2023-03-05T18:44:11.120Z,97927.13
2023-03-05T18:46:38.093Z,97927.66
2023-03-05T18:49:05.477Z,97927.25
2023-03-05T18:51:32.556Z,97914.72
2023-03-05T18:53:59.768Z,97915.69
2023-03-05T18:56:26.674Z,97916.44
2023-03-05T18:58:53.928Z,97917.50
2023-03-05T19:01:20.884Z,97910.47
2023-03-05T19:03:49.224Z,97912.25
2023-03-05T19:06:17.778Z,97910.69
2023-03-05T19:08:45.325Z,97912.91
2023-03-05T19:11:20.057Z,97919.00
2023-03-05T19:13:51.131Z,97913.34
2023-03-05T19:16:27.817Z,97914.28
2023-03-05T19:19:16.623Z,97922.31
2023-03-05T19:21:45.640Z,97903.72
2023-03-05T19:24:13.024Z,97904.81
2023-03-05T19:26:39.962Z,97908.31
2023-03-05T19:29:07.411Z,97905.22
2023-03-05T19:31:34.447Z,97904.38
2023-03-05T19:34:01.974Z,97898.81
2023-03-05T19:36:29.623Z,97899.78
2023-03-05T19:38:56.821Z,97897.00
2023-03-05T19:41:24.138Z,97903.63
2023-03-05T19:43:51.341Z,97899.34
2023-03-05T19:46:18.453Z,97905.53
2023-03-05T19:48:45.845Z,97903.63
2023-03-05T19:51:19.779Z,97908.09
2023-03-05T19:53:47.139Z,97900.09
2023-03-05T19:56:16.376Z,97893.25
2023-03-05T19:58:47.649Z,97893.47
2023-03-05T20:01:16.580Z,97893.38
2023-03-05T20:03:47.805Z,97890.81
2023-03-05T20:06:14.881Z,97888.97
2023-03-05T20:08:42.114Z,97891.66
2023-03-05T20:11:10.422Z,97889.84
2023-03-05T20:13:38.155Z,97887.28
2023-03-05T20:16:06.169Z,97884.59
2023-03-05T20:18:33.723Z,97873.91
2023-03-05T20:21:02.826Z,97872.09
2023-03-05T20:23:30.236Z,97866.97
2023-03-05T20:25:57.236Z,97867.28
2023-03-05T20:28:26.381Z,97870.81
2023-03-05T20:30:57.831Z,97865.38
2023-03-05T20:33:25.353Z,97869.75
2023-03-05T20:35:53.501Z,97869.09
2023-03-05T20:38:21.657Z,97863.00
2023-03-05T20:40:56.037Z,97864.84
2023-03-05T20:43:23.477Z,97862.16
2023-03-05T20:45:50.552Z,97860.34
2023-03-05T20:48:17.686Z,97870.81
2023-03-05T20:50:46.756Z,97863.13
2023-03-05T20:53:14.364Z,97863.75
2023-03-05T20:55:41.844Z,97865.69
2023-03-05T20:58:09.228Z,97860.34
2023-03-05T21:00:36.431Z,97868.38
2023-03-05T21:03:03.657Z,97868.56
2023-03-05T21:05:30.489Z,97869.53
2023-03-05T21:07:58.513Z,97863.22
2023-03-05T21:10:25.578Z,97865.91
2023-03-05T21:12:52.984Z,97864.19
2023-03-05T21:15:22.338Z,97867.09
2023-03-05T21:17:50.559Z,97864.19
2023-03-05T21:20:20.224Z,97863.22
2023-03-05T21:22:47.357Z,97870.50
2023-03-05T21:25:24.853Z,97869.41
2023-03-05T21:27:55.481Z,97862.50
2023-03-05T21:30:22.494Z,97860.75
2023-03-05T21:32:49.903Z,97867.00
2023-03-05T21:35:21.230Z,97866.00
2023-03-05T21:37:48.449Z,97873.19
2023-03-05T21:40:16.942Z,97870.50
2023-03-05T21:42:44.232Z,97868.69
2023-03-05T21:45:13.401Z,97866.09
2023-03-05T21:47:40.386Z,97864.41
2023-03-05T21:50:08.027Z,97863.66
2023-03-05T21:52:34.938Z,97856.50
2023-03-05T21:55:02.146Z,97862.81
2023-03-05T21:57:29.314Z,97859.06
2023-03-05T21:59:56.915Z,97859.28
2023-03-05T22:02:24.086Z,97860.34
2023-03-05T22:04:51.401Z,97856.72
2023-03-05T22:07:18.631Z,97854.78
2023-03-05T22:09:46.098Z,97854.78
2023-03-05T22:13:11.400Z,97857.88
2023-03-05T22:15:57.539Z,97850.63
2023-03-05T22:18:29.094Z,97851.47
2023-03-05T22:20:56.571Z,97849.88
2023-03-05T22:23:24.466Z,97848.06
2023-03-05T22:26:02.758Z,97850.75
2023-03-05T22:28:29.631Z,97848.81
2023-03-05T22:30:56.784Z,97850.63
2023-03-05T22:33:23.659Z,97846.34
2023-03-05T22:35:50.883Z,97846.25
2023-03-05T22:38:17.752Z,97845.50
2023-03-05T22:40:46.237Z,97840.06
2023-03-05T22:43:13.736Z,97845.41
2023-03-05T22:45:40.919Z,97842.94
2023-03-05T22:48:09.857Z,97838.66
2023-03-05T22:50:40.767Z,97829.47
2023-03-05T22:53:07.692Z,97825.59
2023-03-05T22:55:34.905Z,97831.16
2023-03-05T22:58:01.663Z,97829.47
2023-03-05T23:00:28.730Z,97819.84
2023-03-05T23:02:55.636Z,97829.47
2023-03-05T23:05:22.779Z,97831.41
2023-03-05T23:07:49.799Z,97834.81
2023-03-05T23:10:26.969Z,97834.19
2023-03-05T23:12:54.667Z,97834.19
2023-03-05T23:15:26.852Z,97839.41
2023-03-05T23:17:53.615Z,97838.53
2023-03-05T23:20:22.791Z,97836.09
2023-03-05T23:22:49.690Z,97838.66
2023-03-05T23:25:16.834Z,97838.00
2023-03-05T23:27:43.805Z,97841.31
2023-03-05T23:30:17.426Z,97843.88
2023-03-05T23:32:46.155Z,97842.31
2023-03-05T23:35:13.862Z,97840.69
2023-03-05T23:37:41.218Z,97838.22
2023-03-05T23:40:09.851Z,97842.09
2023-03-05T23:42:38.201Z,97835.97
2023-03-05T23:45:10.073Z,97838.00
2023-03-05T23:47:37.172Z,97836.31
2023-03-05T23:50:05.813Z,97844.44
2023-03-05T23:52:33.070Z,97837.38
2023-03-05T23:55:00.223Z,97834.81
2023-03-05T23:57:27.258Z,97836.31
2023-03-05T23:59:54.541Z,97838.00
